Time;durP1;ratioP1;P1;durP2;ratioP2;P2;SDS_P1;SDS_P2;PMS_P1;PMS_P2;Temp;Humidity;BMP_temperature;BMP_pressure;BME280_temperature;BME280_humidity;BME280_pressure;Samples;Min_cycle;Max_cycle;Signal;HPM_P1;HPM_P2
2021/07/03 00:00:17;;;;;;;11.68;4.47;;;14.30;99.90;;;;;;5035559;28;20532;-77
2021/07/03 00:02:43;;;;;;;11.48;4.50;;;14.30;99.90;;;;;;5045108;28;20033;-76
2021/07/03 00:05:09;;;;;;;11.98;4.70;;;14.30;99.90;;;;;;5035614;28;20033;-76
2021/07/03 00:07:35;;;;;;;8.90;3.20;;;14.30;99.90;;;;;;5017673;28;20040;-76
2021/07/03 00:10:00;;;;;;;8.48;4.18;;;14.20;99.90;;;;;;5052542;28;20095;-76
2021/07/03 00:12:26;;;;;;;12.05;3.75;;;14.20;99.90;;;;;;5055243;28;20025;-76
2021/07/03 00:14:52;;;;;;;6.88;3.85;;;14.20;99.90;;;;;;5037450;28;20037;-76
2021/07/03 00:17:17;;;;;;;8.32;3.72;;;14.10;99.90;;;;;;5055481;28;20048;-76
2021/07/03 00:19:43;;;;;;;10.45;3.83;;;14.10;99.90;;;;;;5052442;28;20482;-76
2021/07/03 00:22:08;;;;;;;10.50;4.40;;;14.20;99.90;;;;;;5037553;28;20032;-75
2021/07/03 00:24:34;;;;;;;9.13;3.55;;;14.10;99.90;;;;;;5055067;28;20064;-75
2021/07/03 00:27:00;;;;;;;7.13;3.83;;;14.10;99.90;;;;;;5055383;28;20105;-75
2021/07/03 00:29:25;;;;;;;8.50;4.43;;;14.00;99.90;;;;;;5043966;28;20022;-75
2021/07/03 00:31:51;;;;;;;9.50;4.10;;;13.90;99.90;;;;;;5035384;28;20029;-75
2021/07/03 00:34:16;;;;;;;8.38;4.07;;;13.90;99.90;;;;;;5035121;28;20033;-75
2021/07/03 00:36:42;;;;;;;11.65;4.25;;;13.90;99.90;;;;;;5035006;28;20483;-75
2021/07/03 00:39:08;;;;;;;11.32;4.95;;;13.90;99.90;;;;;;5042844;28;20036;-75
2021/07/03 00:41:33;;;;;;;8.50;3.85;;;13.90;99.90;;;;;;5036804;28;20021;-75
2021/07/03 00:43:59;;;;;;;13.25;3.65;;;13.90;99.90;;;;;;5036503;28;20466;-75
2021/07/03 00:46:24;;;;;;;9.05;3.65;;;13.80;99.90;;;;;;5054824;28;20347;-75
2021/07/03 00:48:50;;;;;;;9.00;3.80;;;13.80;99.90;;;;;;5054626;28;20481;-74
2021/07/03 00:51:16;;;;;;;8.85;3.78;;;13.80;99.90;;;;;;5054501;28;20036;-74
2021/07/03 00:53:41;;;;;;;12.50;4.65;;;13.70;99.90;;;;;;5054798;28;20041;-74
2021/07/03 00:56:07;;;;;;;9.57;4.47;;;13.70;99.90;;;;;;5036637;28;20021;-75
2021/07/03 00:58:33;;;;;;;15.55;3.58;;;13.70;99.90;;;;;;5036659;28;20108;-75
2021/07/03 01:00:58;;;;;;;10.48;4.10;;;13.70;99.90;;;;;;5054391;28;20025;-74
2021/07/03 01:03:24;;;;;;;9.20;4.63;;;13.70;99.90;;;;;;5035148;28;20497;-75
2021/07/03 01:05:50;;;;;;;13.07;4.57;;;13.60;99.90;;;;;;5034397;28;20025;-74
2021/07/03 01:08:16;;;;;;;7.95;3.67;;;13.60;99.90;;;;;;5034420;28;20030;-75
2021/07/03 01:10:42;;;;;;;10.20;3.88;;;13.60;99.90;;;;;;5034259;28;20022;-75
2021/07/03 01:13:07;;;;;;;8.50;4.00;;;13.60;99.90;;;;;;5050793;28;20467;-75
2021/07/03 01:15:33;;;;;;;12.80;4.38;;;13.50;99.90;;;;;;5054607;28;20500;-76
2021/07/03 01:17:59;;;;;;;10.82;4.82;;;13.50;99.90;;;;;;5054650;28;20032;-75
2021/07/03 01:20:25;;;;;;;13.43;5.55;;;13.50;99.90;;;;;;5028822;28;20116;-75
2021/07/03 01:22:51;;;;;;;14.13;5.28;;;13.50;99.90;;;;;;5034030;28;20029;-75
2021/07/03 01:25:17;;;;;;;9.73;4.65;;;13.50;99.90;;;;;;5016298;28;20146;-76
2021/07/03 01:27:54;;;;;;;9.73;4.15;;;13.50;99.90;;;;;;5034096;28;20026;-75
2021/07/03 01:30:20;;;;;;;13.95;4.45;;;13.50;99.90;;;;;;5040151;28;20032;-76
2021/07/03 01:32:45;;;;;;;10.82;4.97;;;13.40;99.90;;;;;;5054147;28;20025;-75
2021/07/03 01:35:11;;;;;;;12.70;5.05;;;13.50;99.90;;;;;;5054291;28;20024;-75
2021/07/03 01:37:37;;;;;;;10.88;5.07;;;13.40;99.90;;;;;;5035810;28;20028;-75
2021/07/03 01:40:03;;;;;;;11.60;4.75;;;13.50;99.90;;;;;;5049974;28;20029;-75
2021/07/03 01:42:29;;;;;;;13.00;5.40;;;13.40;99.90;;;;;;5033664;28;20030;-75
2021/07/03 01:44:55;;;;;;;10.13;4.95;;;13.40;99.90;;;;;;5015930;28;20510;-75
2021/07/03 01:47:21;;;;;;;14.15;5.82;;;13.40;99.90;;;;;;5033860;28;20017;-74
2021/07/03 01:49:46;;;;;;;8.95;4.70;;;13.30;99.90;;;;;;5049718;28;20057;-77
2021/07/03 01:52:17;;;;;;;8.55;4.05;;;13.40;99.90;;;;;;5034182;28;20128;-77
2021/07/03 01:54:43;;;;;;;8.57;5.03;;;13.30;99.90;;;;;;5015910;28;20071;-77
2021/07/03 01:57:09;;;;;;;10.88;4.25;;;13.30;99.90;;;;;;5033580;28;20464;-77
2021/07/03 01:59:34;;;;;;;10.07;3.95;;;13.30;99.90;;;;;;5046504;28;20032;-77
2021/07/03 02:02:03;;;;;;;11.15;4.35;;;13.20;99.90;;;;;;5035602;28;20485;-77
2021/07/03 02:04:29;;;;;;;13.95;5.85;;;13.20;99.90;;;;;;5053772;28;20017;-77
2021/07/03 02:06:55;;;;;;;12.48;4.80;;;13.20;99.90;;;;;;5053436;28;20020;-77
2021/07/03 02:09:22;;;;;;;10.80;4.72;;;13.20;99.90;;;;;;5053393;28;20029;-77
2021/07/03 02:11:48;;;;;;;12.80;5.45;;;13.20;99.90;;;;;;5035541;28;20033;-77
2021/07/03 02:14:14;;;;;;;14.52;5.75;;;13.20;99.90;;;;;;5053634;28;20083;-77
2021/07/03 02:16:40;;;;;;;12.15;5.15;;;13.20;99.90;;;;;;5053665;28;20386;-77
2021/07/03 02:19:06;;;;;;;13.70;6.35;;;13.20;99.90;;;;;;5053216;28;20028;-77
2021/07/03 02:21:32;;;;;;;13.02;5.78;;;13.20;99.90;;;;;;5053218;28;20033;-77
2021/07/03 02:23:58;;;;;;;11.38;5.65;;;13.20;99.90;;;;;;5053047;28;20367;-77
2021/07/03 02:26:26;;;;;;;13.90;5.95;;;13.20;99.90;;;;;;5053120;28;20036;-77
2021/07/03 02:28:52;;;;;;;10.73;5.22;;;13.30;99.90;;;;;;5031916;28;20026;-77
2021/07/03 02:31:18;;;;;;;13.48;6.10;;;13.20;99.90;;;;;;5033383;28;20038;-77
2021/07/03 02:33:45;;;;;;;13.65;5.90;;;13.30;99.90;;;;;;5015360;28;20038;-77
2021/07/03 02:36:11;;;;;;;14.38;6.25;;;13.30;99.90;;;;;;5033210;28;20037;-77
2021/07/03 02:38:36;;;;;;;13.25;5.45;;;13.30;99.90;;;;;;5033705;28;20033;-77
2021/07/03 02:41:02;;;;;;;11.95;6.03;;;13.20;99.90;;;;;;5053178;28;20370;-77
2021/07/03 02:43:28;;;;;;;10.77;5.75;;;13.20;99.90;;;;;;5053007;28;20057;-77
2021/07/03 02:45:53;;;;;;;12.52;6.32;;;13.20;99.90;;;;;;5053260;28;20437;-77
2021/07/03 02:48:19;;;;;;;14.60;5.75;;;13.20;99.90;;;;;;5041317;28;20029;-77
2021/07/03 02:50:45;;;;;;;12.57;5.50;;;13.20;99.90;;;;;;5015256;28;20021;-77
2021/07/03 02:53:10;;;;;;;12.90;5.53;;;13.20;99.90;;;;;;5033122;28;20049;-77
2021/07/03 02:55:36;;;;;;;11.77;5.70;;;13.20;99.90;;;;;;5033378;28;20034;-77
2021/07/03 02:58:02;;;;;;;11.23;5.05;;;13.20;99.90;;;;;;5015311;28;20075;-77
2021/07/03 03:00:27;;;;;;;12.02;5.38;;;13.20;99.90;;;;;;5032945;28;20025;-77
2021/07/03 03:02:53;;;;;;;15.50;6.57;;;13.30;99.90;;;;;;5033088;28;20533;-77
2021/07/03 03:05:19;;;;;;;13.65;6.40;;;13.20;99.90;;;;;;5015177;28;20037;-77
2021/07/03 03:07:45;;;;;;;13.77;5.80;;;13.30;99.90;;;;;;5033512;28;20383;-77
2021/07/03 03:10:14;;;;;;;14.88;7.22;;;13.30;99.90;;;;;;5036642;28;20425;-77
2021/07/03 03:12:39;;;;;;;;;;;13.40;99.90;;;;;;5019248;28;20028;-77
2021/07/03 03:15:06;;;;;;;16.02;7.28;;;13.40;99.90;;;;;;5036484;28;20289;-77
2021/07/03 03:17:32;;;;;;;17.30;8.13;;;13.40;99.90;;;;;;5036487;28;20260;-77
2021/07/03 03:19:57;;;;;;;17.40;7.22;;;13.40;99.90;;;;;;5036805;28;20175;-77
2021/07/03 03:22:23;;;;;;;16.13;7.30;;;13.50;99.90;;;;;;5036426;28;20156;-77
2021/07/03 03:24:48;;;;;;;20.05;7.47;;;13.50;99.90;;;;;;5036253;28;20041;-77
2021/07/03 03:27:14;;;;;;;17.83;6.95;;;13.50;99.90;;;;;;5018615;28;20029;-77
2021/07/03 03:29:40;;;;;;;13.98;7.13;;;13.60;99.90;;;;;;5036229;28;20479;-77
2021/07/03 03:32:06;;;;;;;15.00;6.55;;;13.60;99.90;;;;;;5036290;28;20040;-77
2021/07/03 03:34:32;;;;;;;18.45;6.78;;;13.60;99.90;;;;;;5036739;28;20079;-77
2021/07/03 03:36:57;;;;;;;15.88;7.18;;;13.60;99.90;;;;;;5036192;28;20026;-77
2021/07/03 03:39:23;;;;;;;17.40;7.90;;;13.70;99.90;;;;;;5018287;28;20037;-77
2021/07/03 03:41:48;;;;;;;19.35;8.02;;;13.70;99.90;;;;;;5036116;28;20360;-77
2021/07/03 03:44:14;;;;;;;17.10;7.63;;;13.70;99.90;;;;;;5036074;28;20097;-77
2021/07/03 03:46:39;;;;;;;16.40;8.10;;;13.80;99.90;;;;;;5036038;28;20035;-77
2021/07/03 03:49:05;;;;;;;16.60;7.32;;;13.80;99.90;;;;;;5035826;28;20025;-77
2021/07/03 03:51:30;;;;;;;16.10;7.75;;;13.80;99.90;;;;;;5036205;28;20036;-74
2021/07/03 03:53:56;;;;;;;19.10;7.75;;;13.90;99.90;;;;;;5045784;28;20068;-75
2021/07/03 03:56:22;;;;;;;17.05;7.65;;;13.90;99.90;;;;;;5055750;28;20551;-75
2021/07/03 03:58:47;;;;;;;19.77;8.02;;;13.90;99.90;;;;;;5055647;28;20408;-75
2021/07/03 04:01:13;;;;;;;19.85;9.75;;;14.00;99.90;;;;;;5038001;28;20082;-75
2021/07/03 04:03:38;;;;;;;19.80;9.38;;;14.00;99.90;;;;;;5047868;28;20024;-75
2021/07/03 04:06:04;;;;;;;23.58;9.95;;;14.10;99.90;;;;;;5017790;28;20026;-75
2021/07/03 04:08:30;;;;;;;25.80;9.68;;;14.10;99.90;;;;;;5039993;28;20036;-75
2021/07/03 04:10:56;;;;;;;23.75;9.40;;;14.10;99.90;;;;;;5055377;28;20021;-75
2021/07/03 04:13:22;;;;;;;23.50;10.02;;;14.20;99.90;;;;;;5055198;28;20037;-75
2021/07/03 04:15:47;;;;;;;23.73;10.25;;;14.20;99.90;;;;;;5055272;28;20021;-75
2021/07/03 04:18:13;;;;;;;22.90;9.95;;;14.20;99.90;;;;;;5053851;28;20504;-75
2021/07/03 04:20:39;;;;;;;23.52;9.52;;;14.30;99.90;;;;;;5034222;28;20021;-75
2021/07/03 04:23:04;;;;;;;21.85;10.45;;;14.30;99.90;;;;;;5035373;28;20088;-75
2021/07/03 04:25:30;;;;;;;21.25;9.80;;;14.20;99.90;;;;;;5017326;28;20360;-75
2021/07/03 04:27:56;;;;;;;20.98;10.30;;;14.30;99.90;;;;;;5035730;28;20112;-75
2021/07/03 04:30:21;;;;;;;22.25;9.52;;;14.30;99.90;;;;;;5053214;28;20025;-75
2021/07/03 04:32:48;;;;;;;22.45;10.18;;;14.30;99.90;;;;;;5054961;28;20029;-74
2021/07/03 04:35:16;;;;;;;17.40;9.02;;;14.30;99.90;;;;;;5055259;28;20107;-75
2021/07/03 04:37:42;;;;;;;22.25;10.77;;;14.40;99.90;;;;;;5036939;28;20032;-75
2021/07/03 04:40:08;;;;;;;22.63;10.57;;;14.40;99.90;;;;;;5020363;28;20486;-74
2021/07/03 04:42:34;;;;;;;24.45;10.90;;;14.50;99.90;;;;;;5034833;28;20028;-75
2021/07/03 04:45:00;;;;;;;22.50;10.18;;;14.50;99.90;;;;;;5034876;28;20021;-75
2021/07/03 04:47:25;;;;;;;21.10;9.38;;;14.50;99.90;;;;;;5035065;28;20044;-74
2021/07/03 04:49:51;;;;;;;20.08;9.60;;;14.50;99.90;;;;;;5035290;28;20021;-74
2021/07/03 04:52:16;;;;;;;23.33;10.57;;;14.60;99.90;;;;;;5052707;28;20039;-74
2021/07/03 04:54:42;;;;;;;22.67;10.15;;;14.70;99.90;;;;;;5054866;28;20025;-74
2021/07/03 04:57:08;;;;;;;22.98;11.68;;;14.70;99.90;;;;;;5054850;28;20377;-74
2021/07/03 04:59:38;;;;;;;22.02;10.48;;;14.70;99.90;;;;;;5036527;28;20036;-74
2021/07/03 05:02:05;;;;;;;22.58;10.73;;;14.80;99.90;;;;;;5054391;28;20060;-74
2021/07/03 05:04:31;;;;;;;20.80;9.77;;;14.80;99.90;;;;;;5054371;28;20025;-74
2021/07/03 05:06:56;;;;;;;25.35;11.77;;;14.90;99.90;;;;;;5036466;28;20127;-74
2021/07/03 05:09:22;;;;;;;23.25;11.77;;;15.10;99.90;;;;;;5036399;28;20031;-75
2021/07/03 05:11:48;;;;;;;27.42;11.68;;;15.20;99.90;;;;;;5054593;28;20086;-75
2021/07/03 05:14:13;;;;;;;31.67;13.48;;;15.40;99.90;;;;;;5054204;28;20029;-75
2021/07/03 05:16:39;;;;;;;25.63;12.38;;;15.50;99.90;;;;;;5036371;28;20112;-75
2021/07/03 05:19:04;;;;;;;26.75;12.48;;;15.70;99.90;;;;;;5036317;28;20024;-75
2021/07/03 05:21:30;;;;;;;26.33;12.10;;;15.80;99.90;;;;;;5036174;28;20114;-75
2021/07/03 05:23:55;;;;;;;32.88;14.00;;;15.90;99.90;;;;;;5054209;28;20435;-75
2021/07/03 05:26:21;;;;;;;33.85;14.48;;;16.10;99.90;;;;;;5053941;28;20560;-75
2021/07/03 05:28:46;;;;;;;29.92;13.52;;;16.30;99.90;;;;;;5053907;28;20013;-75
2021/07/03 05:31:12;;;;;;;34.53;13.73;;;16.40;99.90;;;;;;5035634;28;20075;-75
2021/07/03 05:33:37;;;;;;;29.33;13.15;;;16.50;99.90;;;;;;5053892;28;20447;-75
2021/07/03 05:36:03;;;;;;;36.53;16.15;;;16.70;99.90;;;;;;5053898;28;20502;-75
2021/07/03 05:38:29;;;;;;;30.10;14.02;;;16.90;99.90;;;;;;5049165;28;20072;-75
2021/07/03 05:41:00;;;;;;;31.83;13.73;;;17.00;99.90;;;;;;5033947;28;20022;-75
2021/07/03 05:43:27;;;;;;;35.72;14.65;;;17.20;99.90;;;;;;5033871;28;20017;-75
2021/07/03 05:45:52;;;;;;;34.15;14.57;;;17.40;99.90;;;;;;5034624;28;20030;-75
2021/07/03 05:48:18;;;;;;;30.40;14.27;;;17.50;99.90;;;;;;5015910;28;20022;-75
2021/07/03 05:50:44;;;;;;;31.95;14.40;;;17.60;99.90;;;;;;5033751;28;20394;-75
2021/07/03 05:53:09;;;;;;;29.75;14.30;;;17.60;99.90;;;;;;5016002;28;20068;-75
2021/07/03 05:55:35;;;;;;;32.10;16.13;;;17.60;99.90;;;;;;5033629;28;20022;-75
2021/07/03 05:58:00;;;;;;;29.15;13.98;;;17.60;99.90;;;;;;5015848;28;20022;-75
2021/07/03 06:00:26;;;;;;;32.13;14.57;;;17.60;99.90;;;;;;5032056;28;20021;-74
2021/07/03 06:02:51;;;;;;;30.63;13.80;;;17.60;99.90;;;;;;5015735;28;20037;-75
2021/07/03 06:05:17;;;;;;;29.10;14.25;;;18.70;99.90;;;;;;5015787;28;20022;-75
2021/07/03 06:07:43;;;;;;;37.00;14.73;;;17.60;99.90;;;;;;5021082;28;20033;-75
2021/07/03 06:10:09;;;;;;;31.92;14.75;;;17.60;99.90;;;;;;5025350;28;20021;-75
2021/07/03 06:12:35;;;;;;;28.98;14.43;;;17.50;99.90;;;;;;5033304;28;20105;-75
2021/07/03 06:15:05;;;;;;;32.28;14.15;;;17.50;99.90;;;;;;5015839;28;20471;-75
2021/07/03 06:17:31;;;;;;;31.58;14.25;;;17.40;99.90;;;;;;5035546;28;20029;-77
2021/07/03 06:19:57;;;;;;;34.03;15.95;;;17.30;99.90;;;;;;5053155;28;20021;-77
2021/07/03 06:22:22;;;;;;;29.73;14.30;;;17.30;99.90;;;;;;5035670;28;20020;-77
2021/07/03 06:24:48;;;;;;;33.22;15.88;;;17.20;99.90;;;;;;5053191;28;20419;-77
2021/07/03 06:27:14;;;;;;;31.23;13.93;;;17.20;99.90;;;;;;5053491;28;20021;-77
2021/07/03 06:29:40;;;;;;;34.75;14.82;;;17.10;99.90;;;;;;5024080;28;20028;-77
2021/07/03 06:32:08;;;;;;;31.25;14.90;;;17.10;99.90;;;;;;5033073;28;20026;-77
2021/07/03 06:34:37;;;;;;;34.97;15.27;;;17.10;99.90;;;;;;5033468;28;20033;-77
2021/07/03 06:37:03;;;;;;;28.25;14.02;;;17.10;99.90;;;;;;5033136;28;20033;-77
2021/07/03 06:39:29;;;;;;;33.67;15.48;;;17.30;99.90;;;;;;5022514;28;20024;-77
2021/07/03 06:41:54;;;;;;;29.63;14.45;;;17.40;99.90;;;;;;5053212;28;20029;-77
2021/07/03 06:44:20;;;;;;;31.23;14.77;;;17.60;99.90;;;;;;5038512;28;20090;-77
2021/07/03 06:46:46;;;;;;;37.22;15.23;;;17.70;99.90;;;;;;5057013;28;20478;-77
2021/07/03 06:49:13;;;;;;;28.45;14.40;;;17.80;99.90;;;;;;5051909;28;20036;-77
2021/07/03 06:51:38;;;;;;;32.17;12.48;;;17.90;99.90;;;;;;5036859;28;20104;-77
2021/07/03 06:54:05;;;;;;;27.73;13.95;;;18.10;99.90;;;;;;5037507;28;20497;-77
2021/07/03 06:56:31;;;;;;;32.28;14.45;;;18.30;99.90;;;;;;5036831;28;20024;-77
2021/07/03 06:58:56;;;;;;;28.65;13.68;;;18.60;99.90;;;;;;5039324;28;20391;-77
2021/07/03 07:01:22;;;;;;;27.08;13.30;;;18.70;99.90;;;;;;5056413;28;20570;-77
2021/07/03 07:03:48;;;;;;;27.35;13.07;;;19.00;99.90;;;;;;5038522;28;20037;-77
2021/07/03 07:06:13;;;;;;;25.33;12.45;;;19.20;99.90;;;;;;5056973;28;20025;-77
2021/07/03 07:08:39;;;;;;;26.60;12.05;;;19.40;99.90;;;;;;5056218;28;20017;-77
2021/07/03 07:11:04;;;;;;;23.92;12.20;;;19.50;99.90;;;;;;5040876;28;20029;-77
2021/07/03 07:13:30;;;;;;;21.92;11.13;;;19.70;99.90;;;;;;5056775;28;20390;-77
2021/07/03 07:15:56;;;;;;;24.85;11.02;;;19.90;99.90;;;;;;5056753;28;20029;-77
2021/07/03 07:18:22;;;;;;;23.30;10.88;;;20.10;99.90;;;;;;5056707;28;20371;-77
2021/07/03 07:20:48;;;;;;;22.15;9.88;;;20.20;99.90;;;;;;5056912;28;20031;-77
2021/07/03 07:23:14;;;;;;;22.30;10.80;;;20.30;99.90;;;;;;5056582;28;20367;-77
2021/07/03 07:25:40;;;;;;;20.10;9.63;;;20.40;99.90;;;;;;5056066;28;20028;-76
2021/07/03 07:28:05;;;;;;;27.25;10.38;;;20.50;99.90;;;;;;5038337;28;20017;-75
2021/07/03 07:30:31;;;;;;;26.50;11.15;;;20.50;99.90;;;;;;5044022;28;20112;-75
2021/07/03 07:32:56;;;;;;;19.35;8.38;;;20.80;99.90;;;;;;5019135;28;20172;-76
2021/07/03 07:35:22;;;;;;;19.73;9.07;;;20.90;99.90;;;;;;5035971;28;20038;-75
2021/07/03 07:37:48;;;;;;;19.02;9.23;;;21.00;99.90;;;;;;5018252;28;20017;-75
2021/07/03 07:40:15;;;;;;;17.30;8.95;;;21.00;99.90;;;;;;5036338;28;20025;-75
2021/07/03 07:42:41;;;;;;;19.85;8.63;;;21.20;99.90;;;;;;5041075;28;20033;-75
2021/07/03 07:45:08;;;;;;;17.88;8.65;;;21.20;99.90;;;;;;5037974;28;20111;-75
2021/07/03 07:47:34;;;;;;;16.17;8.07;;;21.30;99.90;;;;;;5056412;28;20025;-75
2021/07/03 07:50:00;;;;;;;20.27;8.98;;;21.40;99.90;;;;;;5037891;28;20023;-76
2021/07/03 07:52:25;;;;;;;15.27;8.35;;;21.50;99.90;;;;;;5052664;28;20497;-75
2021/07/03 07:54:51;;;;;;;16.27;8.20;;;21.70;99.90;;;;;;5047749;28;20055;-75
2021/07/03 07:57:17;;;;;;;15.70;7.22;;;21.70;99.90;;;;;;5055646;28;20398;-75
2021/07/03 07:59:43;;;;;;;16.38;7.35;;;21.80;99.90;;;;;;5056382;28;20135;-77
2021/07/03 08:02:08;;;;;;;15.25;7.65;;;21.90;99.90;;;;;;5037735;28;20017;-77
2021/07/03 08:04:34;;;;;;;14.85;6.97;;;22.00;99.90;;;;;;5046345;28;20060;-77
2021/07/03 08:06:59;;;;;;;14.38;7.20;;;22.10;99.90;;;;;;5018257;28;20017;-77
2021/07/03 08:09:25;;;;;;;16.98;7.88;;;22.10;99.90;;;;;;5037187;28;20036;-76
2021/07/03 08:11:51;;;;;;;14.13;6.50;;;22.20;99.90;;;;;;5035872;28;20590;-77
2021/07/03 08:14:16;;;;;;;14.18;6.82;;;22.50;99.90;;;;;;5035387;28;20045;-76
2021/07/03 08:16:42;;;;;;;12.68;6.20;;;22.40;99.90;;;;;;5035960;28;20514;-76
2021/07/03 08:19:07;;;;;;;13.70;6.32;;;22.50;99.90;;;;;;5045429;28;20111;-76
2021/07/03 08:21:33;;;;;;;16.63;7.25;;;22.60;99.90;;;;;;5054561;28;20067;-76
2021/07/03 08:23:59;;;;;;;13.70;6.20;;;22.70;99.90;;;;;;5055226;28;20545;-76
2021/07/03 08:26:25;;;;;;;10.50;5.82;;;22.90;99.90;;;;;;5066032;22;20037;-77
2021/07/03 08:28:51;;;;;;;13.65;5.97;;;22.90;99.90;;;;;;5055246;28;20025;-75
2021/07/03 08:31:16;;;;;;;9.73;4.60;;;23.10;99.90;;;;;;5054926;28;20029;-77
2021/07/03 08:33:42;;;;;;;12.88;4.93;;;23.20;99.90;;;;;;5055520;28;20110;-77
2021/07/03 08:36:08;;;;;;;9.15;4.43;;;23.30;99.90;;;;;;5037323;28;20478;-77
2021/07/03 08:38:33;;;;;;;10.48;3.90;;;23.40;99.90;;;;;;5037155;28;20074;-77
2021/07/03 08:40:59;;;;;;;14.73;5.10;;;23.50;99.90;;;;;;5055084;28;20533;-77
2021/07/03 08:43:25;;;;;;;8.93;4.22;;;23.60;99.90;;;;;;5057563;28;20021;-77
2021/07/03 08:45:58;;;;;;;6.68;4.03;;;23.60;98.90;;;;;;5075179;28;20017;-77
2021/07/03 08:48:25;;;;;;;10.98;4.70;;;23.70;99.70;;;;;;5057321;28;20020;-77
2021/07/03 08:50:56;;;;;;;9.35;3.88;;;23.80;97.70;;;;;;5075358;28;20016;-77
2021/07/03 08:53:23;;;;;;;6.82;3.85;;;23.70;96.10;;;;;;5075530;28;20027;-77
2021/07/03 08:55:48;;;;;;;8.00;3.22;;;23.80;96.20;;;;;;5075417;28;20485;-78
2021/07/03 08:58:14;;;;;;;8.18;3.40;;;23.90;97.00;;;;;;5075296;28;20032;-77
2021/07/03 09:00:45;;;;;;;8.57;3.88;;;24.10;95.40;;;;;;5056758;28;20053;-78
2021/07/03 09:03:22;;;;;;;9.25;3.90;;;24.10;95.10;;;;;;5057343;28;20025;-78
2021/07/03 09:05:51;;;;;;;8.93;3.67;;;24.30;93.40;;;;;;5074485;28;20020;-78
2021/07/03 09:08:19;;;;;;;6.13;3.38;;;24.30;92.00;;;;;;5060324;28;20028;-77
2021/07/03 09:10:44;;;;;;;5.87;3.20;;;24.40;91.90;;;;;;5037145;28;20068;-77
2021/07/03 09:13:11;;;;;;;7.22;3.30;;;24.50;91.40;;;;;;5036667;28;20081;-77
2021/07/03 09:15:44;;;;;;;4.40;2.72;;;24.70;92.10;;;;;;5054591;28;20032;-74
2021/07/03 09:18:14;;;;;;;8.27;3.50;;;24.90;90.60;;;;;;5054119;28;20032;-74
2021/07/03 09:20:42;;;;;;;5.35;2.72;;;25.10;86.30;;;;;;5054276;28;20389;-75
2021/07/03 09:23:08;;;;;;;4.88;2.22;;;25.30;85.50;;;;;;5054223;28;20040;-75
2021/07/03 09:25:39;;;;;;;4.05;1.83;;;25.40;82.60;;;;;;5054082;28;20090;-75
2021/07/03 09:28:15;;;;;;;10.18;3.40;;;25.50;83.20;;;;;;5054014;28;20029;-75
2021/07/03 09:30:44;;;;;;;7.22;3.08;;;25.50;83.10;;;;;;5053978;28;20017;-76
2021/07/03 09:33:10;;;;;;;5.10;1.85;;;25.50;79.80;;;;;;5053942;28;20025;-76
2021/07/03 09:35:35;;;;;;;7.00;2.38;;;25.60;76.90;;;;;;5034346;28;20013;-76
2021/07/03 09:38:03;;;;;;;4.55;3.30;;;25.60;76.90;;;;;;5054395;28;20044;-76
2021/07/03 09:40:31;;;;;;;7.65;3.13;;;25.60;78.60;;;;;;5036285;28;20017;-74
2021/07/03 09:43:09;;;;;;;4.63;3.05;;;25.60;77.90;;;;;;5053735;28;20474;-76
2021/07/03 09:45:35;;;;;;;5.75;3.25;;;25.80;77.50;;;;;;5054269;28;20087;-77
2021/07/03 09:48:07;;;;;;;5.50;2.20;;;25.80;76.90;;;;;;5036277;28;20024;-77
2021/07/03 09:50:33;;;;;;;4.95;2.08;;;25.80;77.40;;;;;;5053758;28;20555;-75
2021/07/03 09:53:00;;;;;;;6.90;2.72;;;25.80;77.60;;;;;;5053642;28;20025;-75
2021/07/03 09:55:26;;;;;;;5.28;2.17;;;25.80;75.30;;;;;;5035989;28;20059;-76
2021/07/03 09:57:52;;;;;;;4.03;2.15;;;25.80;77.00;;;;;;5053441;28;20017;-75
2021/07/03 10:00:18;;;;;;;5.80;2.88;;;25.80;78.90;;;;;;5035572;28;20021;-77
2021/07/03 10:02:44;;;;;;;4.43;2.50;;;25.80;76.60;;;;;;5054161;28;20029;-76
2021/07/03 10:05:10;;;;;;;5.40;3.58;;;25.70;78.60;;;;;;5047694;28;20070;-76
2021/07/03 10:07:44;;;;;;;3.85;2.58;;;25.60;76.90;;;;;;5023590;28;20031;-76
2021/07/03 10:10:19;;;;;;;5.75;2.92;;;25.50;78.70;;;;;;5033384;28;20026;-76
2021/07/03 10:12:55;;;;;;;6.45;3.25;;;25.40;79.30;;;;;;5033399;28;20036;-74
2021/07/03 10:15:29;;;;;;;4.38;2.67;;;25.30;79.80;;;;;;5033567;28;20390;-74
2021/07/03 10:18:07;;;;;;;7.40;2.65;;;25.30;80.80;;;;;;5015859;28;20404;-76
2021/07/03 10:20:33;;;;;;;4.37;2.00;;;25.20;81.70;;;;;;5033295;28;20026;-76
2021/07/03 10:22:59;;;;;;;7.35;2.97;;;25.20;80.40;;;;;;5033598;28;20477;-76
2021/07/03 10:25:40;;;;;;;4.32;2.50;;;25.10;81.40;;;;;;5033168;28;20040;-75
2021/07/03 10:28:09;;;;;;;5.15;3.05;;;25.00;83.90;;;;;;5033493;28;20032;-75
2021/07/03 10:30:37;;;;;;;4.18;2.55;;;24.80;83.10;;;;;;5015463;28;20030;-74
2021/07/03 10:33:05;;;;;;;5.55;3.08;;;24.80;85.50;;;;;;5034703;28;20040;-73
2021/07/03 10:35:49;;;;;;;34.00;9.25;;;24.70;86.00;;;;;;5033299;28;20026;-75
2021/07/03 10:38:16;;;;;;;9.55;3.92;;;24.70;87.30;;;;;;5033040;28;20034;-74
2021/07/03 10:40:42;;;;;;;6.25;2.90;;;24.70;86.40;;;;;;5033341;28;20041;-76
2021/07/03 10:43:11;;;;;;;8.35;3.10;;;24.70;86.90;;;;;;5023928;28;20028;-76
2021/07/03 10:45:54;;;;;;;7.20;3.83;;;24.80;88.90;;;;;;5052852;28;20031;-74
2021/07/03 10:48:22;;;;;;;7.28;3.75;;;25.10;89.60;;;;;;5035157;28;20063;-74
2021/07/03 10:50:50;;;;;;;8.85;3.75;;;25.40;86.80;;;;;;5052831;28;20414;-74
2021/07/03 10:53:27;;;;;;;7.07;3.20;;;25.50;86.30;;;;;;5042623;28;20445;-74
2021/07/03 10:55:54;;;;;;;6.50;3.22;;;25.60;86.90;;;;;;5015452;28;20014;-74
2021/07/03 10:58:21;;;;;;;8.18;4.07;;;25.70;87.40;;;;;;5015426;28;20029;-74
2021/07/03 11:00:51;;;;;;;7.93;3.57;;;25.80;87.00;;;;;;5034308;28;20017;-74
2021/07/03 11:03:23;;;;;;;5.78;3.85;;;25.90;85.50;;;;;;5052049;28;20116;-75
2021/07/03 11:05:50;;;;;;;8.20;3.33;;;25.90;84.40;;;;;;5035202;28;20017;-75
2021/07/03 11:08:20;;;;;;;8.15;3.17;;;25.80;85.80;;;;;;5052878;28;20025;-76
2021/07/03 11:10:47;;;;;;;5.63;3.28;;;25.80;86.50;;;;;;5034784;28;20021;-76
2021/07/03 11:13:24;;;;;;;5.65;2.90;;;25.90;84.60;;;;;;5038962;28;20033;-75
2021/07/03 11:15:50;;;;;;;7.82;3.83;;;26.00;84.80;;;;;;5015283;28;20075;-76
2021/07/03 11:18:16;;;;;;;8.55;3.20;;;26.10;83.40;;;;;;5032820;28;20474;-76
2021/07/03 11:20:42;;;;;;;5.80;3.20;;;26.10;84.30;;;;;;5015648;28;20028;-76
2021/07/03 11:23:09;;;;;;;8.63;3.97;;;26.20;84.20;;;;;;5027547;28;20032;-76
2021/07/03 11:25:44;;;;;;;6.35;3.53;;;26.30;81.70;;;;;;5034630;28;20029;-76
2021/07/03 11:28:22;;;;;;;6.18;2.55;;;26.40;82.20;;;;;;5052879;28;20029;-76
2021/07/03 11:30:55;;;;;;;4.65;2.58;;;26.60;81.80;;;;;;5056176;28;20024;-77
2021/07/03 11:33:21;;;;;;;7.55;3.08;;;26.90;83.30;;;;;;5054591;28;20500;-76
2021/07/03 11:35:49;;;;;;;4.57;2.88;;;27.20;76.50;;;;;;5045969;28;20060;-76
2021/07/03 11:38:20;;;;;;;8.20;3.15;;;27.30;75.20;;;;;;5036425;28;20120;-76
2021/07/03 11:40:46;;;;;;;5.90;2.88;;;27.40;75.60;;;;;;5018336;28;20025;-76
2021/07/03 11:43:12;;;;;;;4.05;2.60;;;27.40;74.20;;;;;;5048843;28;20029;-77
2021/07/03 11:45:40;;;;;;;8.07;3.00;;;27.10;75.30;;;;;;5039272;28;20013;-77
2021/07/03 11:48:10;;;;;;;6.97;3.35;;;27.00;74.70;;;;;;5057152;28;20070;-76
2021/07/03 11:50:48;;;;;;;6.03;2.20;;;26.70;76.40;;;;;;5056995;28;20025;-77
2021/07/03 11:53:16;;;;;;;3.20;2.15;;;26.60;77.60;;;;;;5055377;28;20116;-74
2021/07/03 11:55:50;;;;;;;3.42;2.00;;;26.40;76.80;;;;;;5055846;28;20413;-74
2021/07/03 11:58:20;;;;;;;4.10;2.60;;;26.40;78.50;;;;;;5055760;28;20496;-76
2021/07/03 12:00:48;;;;;;;5.72;2.65;;;26.30;78.60;;;;;;5055596;28;20090;-75
2021/07/03 12:03:14;;;;;;;;;;;26.20;78.80;;;;;;5055890;28;20036;-76
2021/07/03 12:05:44;;;;;;;5.53;2.58;;;26.10;78.10;;;;;;5055682;28;19905;-76
2021/07/03 12:08:12;;;;;;;6.32;2.83;;;25.90;79.10;;;;;;5055410;28;20017;-76
2021/07/03 12:10:46;;;;;;;5.50;3.10;;;25.90;80.80;;;;;;5055434;28;20075;-76
2021/07/03 12:13:25;;;;;;;4.63;3.13;;;25.80;80.70;;;;;;5037486;28;20485;-76
2021/07/03 12:15:53;;;;;;;4.93;2.45;;;25.70;83.20;;;;;;5055928;28;20489;-76
2021/07/03 12:18:30;;;;;;;;;;;25.70;83.90;;;;;;5054314;28;20543;-75
2021/07/03 12:21:19;;;;;;;3.88;2.13;;;25.70;84.40;;;;;;5055252;28;20276;-75
2021/07/03 12:23:48;;;;;;;5.93;1.92;;;25.70;82.10;;;;;;5037499;28;20392;-74
2021/07/03 12:26:19;;;;;;;3.92;1.67;;;25.60;82.30;;;;;;5055214;28;20541;-74
2021/07/03 12:29:03;;;;;;;4.25;2.50;;;25.50;80.50;;;;;;5053830;28;20025;-74
2021/07/03 12:31:30;;;;;;;1.60;1.20;;;25.40;80.60;;;;;;5037108;28;20021;-74
2021/07/03 12:34:25;;;;;;;3.10;1.73;;;25.30;80.80;;;;;;5055015;28;20033;-74
2021/07/03 12:37:05;;;;;;;5.63;2.03;;;25.20;82.10;;;;;;5035417;28;20031;-74